createdAt,value
2023-01-25T00:00:00.705Z,102409.03
2023-01-25T00:05:03.498Z,102402.81
2023-01-25T00:10:08.562Z,102406.50
2023-01-25T00:15:12.294Z,102410.94
2023-01-25T00:20:15.238Z,102398.63
2023-01-25T00:25:19.589Z,102398.38
2023-01-25T00:30:22.371Z,102401.13
2023-01-25T00:35:25.335Z,102389.72
2023-01-25T00:40:29.503Z,102396.16
2023-01-25T00:45:32.293Z,102394.28
2023-01-25T00:50:35.743Z,102398.78
2023-01-25T00:55:39.915Z,102396.03
2023-01-25T01:00:42.877Z,102393.41
2023-01-25T01:05:45.867Z,102385.22
2023-01-25T01:10:50.050Z,102386.25
2023-01-25T01:15:54.337Z,102386.25
2023-01-25T01:20:57.192Z,102381.81
2023-01-25T01:26:02.058Z,102371.16
2023-01-25T01:31:05.479Z,102373.16
2023-01-25T01:36:13.057Z,102373.06
2023-01-25T01:41:17.400Z,102373.00
2023-01-25T01:46:23.533Z,102360.59
2023-01-25T01:51:31.076Z,102343.78
2023-01-25T01:56:37.202Z,102326.75
2023-01-25T02:01:40.495Z,102313.97
2023-01-25T02:06:46.771Z,102314.94
2023-01-25T02:11:53.143Z,102313.97
2023-01-25T02:16:55.946Z,102305.00
2023-01-25T02:21:58.805Z,102300.56
2023-01-25T02:27:02.992Z,102289.81
2023-01-25T02:32:06.734Z,102284.66
2023-01-25T02:37:10.438Z,102294.50
2023-01-25T02:42:14.684Z,102300.88
2023-01-25T02:47:17.755Z,102291.03
2023-01-25T02:52:20.795Z,102292.69
2023-01-25T02:57:24.955Z,102280.06
2023-01-25T03:02:28.194Z,102272.97
2023-01-25T03:07:31.047Z,102268.63
2023-01-25T03:12:36.068Z,102267.75
2023-01-25T03:17:38.987Z,102268.63
2023-01-25T03:22:41.889Z,102260.50
2023-01-25T03:27:46.679Z,102261.22
2023-01-25T03:32:50.688Z,102251.75
2023-01-25T03:37:55.662Z,102243.69
2023-01-25T03:43:00.533Z,102243.63
2023-01-25T03:48:03.456Z,102240.88
2023-01-25T03:53:10.218Z,102232.97
2023-01-25T03:58:14.449Z,102225.78
2023-01-25T04:03:19.584Z,102238.34
2023-01-25T04:08:22.611Z,102236.53
2023-01-25T04:13:27.199Z,102236.53
2023-01-25T04:18:30.034Z,102234.78
2023-01-25T04:23:33.105Z,102230.38
2023-01-25T04:28:37.422Z,102226.84
2023-01-25T04:33:40.392Z,102224.09
2023-01-25T04:38:44.686Z,102212.72
2023-01-25T04:43:49.275Z,102210.97
2023-01-25T04:48:52.473Z,102204.75
2023-01-25T04:53:55.354Z,102211.25
2023-01-25T04:59:00.273Z,102213.13
2023-01-25T05:04:04.053Z,102207.97
2023-01-25T05:09:20.912Z,102216.00
2023-01-25T05:14:25.910Z,102195.78
2023-01-25T05:19:28.860Z,102198.53
2023-01-25T05:24:36.515Z,102198.81
2023-01-25T05:29:44.879Z,102199.09
2023-01-25T05:34:48.159Z,102197.63
2023-01-25T05:39:51.692Z,102200.59
2023-01-25T05:44:56.833Z,102200.75
2023-01-25T05:50:00.358Z,102191.13
2023-01-25T05:55:16.188Z,102190.50
2023-01-25T06:00:22.107Z,102196.94
2023-01-25T06:05:24.965Z,102187.44
2023-01-25T06:10:27.907Z,102182.22
2023-01-25T06:15:32.489Z,102181.50
2023-01-25T06:21:13.855Z,102175.50
2023-01-25T06:26:17.606Z,102180.97
2023-01-25T06:31:21.847Z,102183.78
2023-01-25T06:36:24.619Z,102187.47
2023-01-25T06:41:27.638Z,102179.59
2023-01-25T06:46:32.807Z,102185.03
2023-01-25T06:51:35.699Z,102175.25
2023-01-25T06:56:38.490Z,102166.44
2023-01-25T07:01:43.098Z,102158.56
2023-01-25T07:06:45.858Z,102161.31
2023-01-25T07:11:48.776Z,102157.84
2023-01-25T07:16:53.002Z,102155.25
2023-01-25T07:21:55.784Z,102142.91
2023-01-25T07:26:58.567Z,102141.31
2023-01-25T07:32:02.811Z,102136.94
2023-01-25T07:37:06.387Z,102138.00
2023-01-25T07:42:09.455Z,102122.94
2023-01-25T07:47:14.016Z,102122.19
2023-01-25T07:52:16.878Z,102127.59
2023-01-25T07:57:20.358Z,102123.13
2023-01-25T08:02:24.552Z,102117.84
2023-01-25T08:07:29.266Z,102102.53
2023-01-25T08:12:32.549Z,102099.00
2023-01-25T08:17:37.549Z,102107.88
2023-01-25T08:22:40.351Z,102086.06
2023-01-25T08:27:43.709Z,102102.53
2023-01-25T08:32:47.847Z,102107.72
2023-01-25T08:37:50.612Z,102108.66
2023-01-25T08:42:53.458Z,102099.13
2023-01-25T08:47:57.737Z,102093.16
2023-01-25T08:53:00.677Z,102099.69
2023-01-25T08:58:03.666Z,102076.75
2023-01-25T09:03:07.856Z,102085.97
2023-01-25T09:08:11.126Z,102069.28
2023-01-25T09:13:14.419Z,102080.22
2023-01-25T09:18:18.735Z,102071.38
2023-01-25T09:23:23.815Z,102061.69
2023-01-25T09:28:26.784Z,102069.06
2023-01-25T09:33:32.531Z,102083.66
2023-01-25T09:38:35.379Z,102087.38
2023-01-25T09:43:46.940Z,102081.44
2023-01-25T09:49:06.784Z,102072.81
2023-01-25T09:54:10.510Z,102068.75
2023-01-25T09:59:17.181Z,102054.38
2023-01-25T10:04:23.643Z,102051.44
2023-01-25T10:09:32.810Z,102041.91
2023-01-25T10:14:35.727Z,102029.16
2023-01-25T10:19:45.791Z,102029.06
2023-01-25T10:25:07.429Z,102021.03
2023-01-25T10:30:21.622Z,102010.53
2023-01-25T10:35:35.331Z,102003.56
2023-01-25T10:40:42.088Z,101991.41
2023-01-25T10:45:45.417Z,101979.25
2023-01-25T10:50:54.097Z,101979.59
2023-01-25T10:56:02.205Z,101975.91
2023-01-25T11:01:06.949Z,101962.84
2023-01-25T11:06:11.218Z,101958.81
2023-01-25T11:11:26.204Z,101954.16
2023-01-25T11:16:33.999Z,101953.25
2023-01-25T11:21:38.155Z,101941.31
2023-01-25T11:26:41.659Z,101928.44
2023-01-25T11:31:46.502Z,101912.28
2023-01-25T11:37:04.485Z,101912.59
2023-01-25T11:42:13.371Z,101895.66
2023-01-25T11:47:23.335Z,101893.69
2023-01-25T11:52:31.843Z,101883.56
2023-01-25T11:57:43.803Z,101871.66
2023-01-25T12:02:57.389Z,101856.09
2023-01-25T12:08:06.620Z,101857.75
2023-01-25T12:13:12.523Z,101832.84
2023-01-25T12:18:46.389Z,101822.13
2023-01-25T12:23:58.725Z,101814.16
2023-01-25T12:29:05.457Z,101804.59
2023-01-25T12:34:11.567Z,101796.75
2023-01-25T12:39:18.633Z,101798.72
2023-01-25T12:44:22.980Z,101788.94
2023-01-25T12:49:29.490Z,101770.31
2023-01-25T12:54:35.604Z,101771.25
2023-01-25T12:59:43.228Z,101754.41
2023-01-25T13:04:54.428Z,101750.00
2023-01-25T13:10:00.572Z,101745.66
2023-01-25T13:15:03.365Z,101735.41
2023-01-25T13:20:32.658Z,101729.75
2023-01-25T13:25:36.915Z,101725.09
2023-01-25T13:30:39.715Z,101722.25
2023-01-25T13:35:44.357Z,101721.47
2023-01-25T13:40:48.953Z,101709.56
2023-01-25T13:45:52.248Z,101691.50
2023-01-25T13:50:55.965Z,101690.25
2023-01-25T13:56:00.366Z,101682.13
2023-01-25T14:01:06.468Z,101667.09
2023-01-25T14:06:16.765Z,101663.75
2023-01-25T14:11:21.634Z,101664.84
2023-01-25T14:16:24.515Z,101648.78
2023-01-25T14:21:27.533Z,101645.50
2023-01-25T14:26:31.770Z,101641.28
2023-01-25T14:31:37.213Z,101629.28
2023-01-25T14:36:40.193Z,101630.81
2023-01-25T14:41:59.759Z,101624.31
2023-01-25T14:47:23.657Z,101619.06
2023-01-25T14:52:27.381Z,101618.84
2023-01-25T14:57:40.581Z,101605.97
2023-01-25T15:02:46.201Z,101604.16
2023-01-25T15:07:50.166Z,101599.91
2023-01-25T15:13:11.591Z,101581.16
2023-01-25T15:18:45.661Z,101573.13
2023-01-25T15:23:49.109Z,101567.94
2023-01-25T15:28:53.983Z,101576.84
2023-01-25T15:33:57.153Z,101569.81
2023-01-25T15:39:00.006Z,101565.25
2023-01-25T15:44:04.383Z,101557.16
2023-01-25T15:49:07.573Z,101547.28
2023-01-25T15:54:10.370Z,101548.25
2023-01-25T15:59:17.360Z,101536.75
2023-01-25T16:04:20.195Z,101531.31
2023-01-25T16:09:24.255Z,101532.31
2023-01-25T16:14:30.138Z,101521.47
2023-01-25T16:19:34.668Z,101519.72
2023-01-25T16:24:39.516Z,101513.41
2023-01-25T16:29:43.875Z,101509.78
2023-01-25T16:34:46.662Z,101506.94
2023-01-25T16:39:49.573Z,101501.44
2023-01-25T16:44:53.827Z,101503.16
2023-01-25T16:49:56.772Z,101500.31
2023-01-25T16:54:59.818Z,101493.13
2023-01-25T17:00:05.250Z,101492.00
2023-01-25T17:05:08.689Z,101489.97
2023-01-25T17:10:12.378Z,101488.16
2023-01-25T17:15:19.789Z,101483.09
2023-01-25T17:20:22.567Z,101467.03
2023-01-25T17:25:26.192Z,101457.38
2023-01-25T17:30:30.488Z,101456.81
2023-01-25T17:35:36.141Z,101457.09
2023-01-25T17:40:38.999Z,101448.41
2023-01-25T17:45:43.226Z,101444.09
2023-01-25T17:50:45.993Z,101438.94
2023-01-25T17:55:48.808Z,101433.75
2023-01-25T18:00:59.343Z,101437.53
2023-01-25T18:06:09.390Z,101432.34
2023-01-25T18:11:15.260Z,101424.31
2023-01-25T18:16:21.492Z,101425.41
2023-01-25T18:21:25.484Z,101404.94
2023-01-25T18:26:29.157Z,101407.88
2023-01-25T18:31:33.546Z,101406.16
2023-01-25T18:36:36.542Z,101391.19
2023-01-25T18:41:39.360Z,101389.44
2023-01-25T18:46:45.497Z,101377.09
2023-01-25T18:52:05.211Z,101370.97
2023-01-25T18:57:12.108Z,101362.13
2023-01-25T19:02:17.398Z,101358.59
2023-01-25T19:07:20.194Z,101358.69
2023-01-25T19:12:23.228Z,101344.63
2023-01-25T19:17:27.366Z,101343.75
2023-01-25T19:22:30.207Z,101342.09
2023-01-25T19:27:33.027Z,101343.84
2023-01-25T19:32:37.149Z,101336.81
2023-01-25T19:37:39.985Z,101336.81
2023-01-25T19:42:42.965Z,101327.16
2023-01-25T19:47:47.273Z,101317.41
2023-01-25T19:52:50.111Z,101317.50
2023-01-25T19:57:52.849Z,101313.09
2023-01-25T20:03:07.317Z,101313.09
2023-01-25T20:08:17.894Z,101305.75
2023-01-25T20:13:20.650Z,101292.63
2023-01-25T20:18:24.862Z,101282.72
2023-01-25T20:23:27.695Z,101284.34
2023-01-25T20:28:30.513Z,101280.03
2023-01-25T20:33:34.745Z,101258.63
2023-01-25T20:38:37.736Z,101258.72
2023-01-25T20:43:40.667Z,101255.19
2023-01-25T20:48:44.854Z,101250.75
2023-01-25T20:53:47.703Z,101240.94
2023-01-25T20:58:51.204Z,101229.44
2023-01-25T21:03:56.817Z,101225.78
2023-01-25T21:08:59.875Z,101218.72
2023-01-25T21:14:02.749Z,101211.63
2023-01-25T21:19:07.324Z,101214.19
2023-01-25T21:24:11.781Z,101205.97
2023-01-25T21:29:14.831Z,101204.75
2023-01-25T21:34:19.091Z,101203.63
2023-01-25T21:39:21.879Z,101201.56
2023-01-25T21:44:42.255Z,101187.06
2023-01-25T21:50:03.797Z,101190.50
2023-01-25T21:55:07.639Z,101194.72
2023-01-25T22:00:12.301Z,101198.28
2023-01-25T22:05:16.774Z,101193.53
2023-01-25T22:10:19.803Z,101186.00
2023-01-25T22:15:22.751Z,101187.38
2023-01-25T22:20:26.911Z,101185.09
2023-01-25T22:25:29.638Z,101171.47
2023-01-25T22:30:32.502Z,101171.28
2023-01-25T22:35:36.638Z,101161.16
2023-01-25T22:40:39.444Z,101158.19
2023-01-25T22:45:50.121Z,101145.13
2023-01-25T22:50:54.213Z,101142.19
2023-01-25T22:56:01.618Z,101143.72
2023-01-25T23:01:04.606Z,101144.44
2023-01-25T23:06:10.026Z,101138.41
2023-01-25T23:11:13.531Z,101122.41
2023-01-25T23:16:16.402Z,101125.88
2023-01-25T23:21:21.329Z,101122.69
2023-01-25T23:26:24.171Z,101116.41
2023-01-25T23:31:27.291Z,101106.34
2023-01-25T23:36:32.219Z,101108.81
2023-01-25T23:41:35.041Z,101102.44
2023-01-25T23:46:37.947Z,101098.78
2023-01-25T23:51:42.045Z,101095.91
2023-01-25T23:56:44.818Z,101077.91
